Time;durP1;ratioP1;P1;durP2;ratioP2;P2;SDS_P1;SDS_P2;PMS_P1;PMS_P2;Temp;Humidity;BMP_temperature;BMP_pressure;BME280_temperature;BME280_humidity;BME280_pressure;Samples;Min_cycle;Max_cycle;Signal;HPM_P1;HPM_P2
2022/06/25 00:01:13;;;;;;;3.65;2.33;;;;;;;;;;5052436;28;20048;-37
2022/06/25 00:03:39;;;;;;;8.00;2.63;;;;;;;;;;5052346;28;20075;-37
2022/06/25 00:06:05;;;;;;;5.75;2.28;;;;;;;;;;5050917;28;20460;-37
2022/06/25 00:08:30;;;;;;;6.50;2.45;;;;;;;;;;5052548;28;20074;-37
2022/06/25 00:10:55;;;;;;;7.07;2.63;;;;;;;;;;5052210;28;20091;-37
2022/06/25 00:13:21;;;;;;;5.10;2.10;;;;;;;;;;5052249;28;20032;-37
2022/06/25 00:15:47;;;;;;;6.18;2.13;;;;;;;;;;5052197;28;20028;-37
2022/06/25 00:18:14;;;;;;;8.80;2.40;;;;;;;;;;5050742;28;20522;-37
2022/06/25 00:20:39;;;;;;;8.82;2.15;;;;;;;;;;5052248;28;20100;-41
2022/06/25 00:23:05;;;;;;;9.55;2.40;;;;;;;;;;5052297;28;20048;-37
2022/06/25 00:25:30;;;;;;;7.05;2.47;;;;;;;;;;5054658;28;20381;-37
2022/06/25 00:27:56;;;;;;;7.55;2.63;;;;;;;;;;5055094;28;20021;-37
2022/06/25 00:30:21;;;;;;;10.75;2.85;;;;;;;;;;5056143;28;20534;-37
2022/06/25 00:32:46;;;;;;;7.18;2.22;;;;;;;;;;5055766;28;20021;-37
2022/06/25 00:35:12;;;;;;;10.45;2.22;;;;;;;;;;5055743;28;20025;-37
2022/06/25 00:37:37;;;;;;;5.32;3.22;;;;;;;;;;5055925;28;20032;-37
2022/06/25 00:40:03;;;;;;;9.98;2.63;;;;;;;;;;5055971;28;20056;-37
2022/06/25 00:42:28;;;;;;;4.90;2.42;;;;;;;;;;5055810;28;20464;-37
2022/06/25 00:44:55;;;;;;;6.35;1.88;;;;;;;;;;5055653;28;20492;-37
2022/06/25 00:47:21;;;;;;;6.13;2.15;;;;;;;;;;5055563;28;20392;-37
2022/06/25 00:49:46;;;;;;;9.30;2.60;;;;;;;;;;5055420;28;20043;-37
2022/06/25 00:52:12;;;;;;;6.00;2.43;;;;;;;;;;5055860;28;20048;-37
2022/06/25 00:54:39;;;;;;;3.13;2.20;;;;;;;;;;5055567;28;20813;-37
2022/06/25 00:57:05;;;;;;;6.70;2.30;;;;;;;;;;5055435;28;20025;-37
2022/06/25 00:59:33;;;;;;;5.93;2.03;;;;;;;;;;5055556;28;20052;-37
2022/06/25 01:01:58;;;;;;;6.82;2.00;;;;;;;;;;5054230;28;20380;-37
2022/06/25 01:04:23;;;;;;;7.93;2.42;;;;;;;;;;5055219;28;20017;-38
2022/06/25 01:06:49;;;;;;;8.30;2.28;;;;;;;;;;5055522;28;20025;-37
2022/06/25 01:09:14;;;;;;;5.32;3.08;;;;;;;;;;5055389;28;20515;-37
2022/06/25 01:11:40;;;;;;;5.78;2.25;;;;;;;;;;5055111;28;20052;-37
2022/06/25 01:14:11;;;;;;;4.40;1.95;;;;;;;;;;5055281;28;20037;-37
2022/06/25 01:16:37;;;;;;;5.57;2.00;;;;;;;;;;5055054;28;20094;-37
2022/06/25 01:19:07;;;;;;;10.35;1.73;;;;;;;;;;5053634;28;20032;-37
2022/06/25 01:21:32;;;;;;;8.25;1.95;;;;;;;;;;5055059;28;20401;-37
2022/06/25 01:23:58;;;;;;;4.50;1.80;;;;;;;;;;5055095;28;20061;-37
2022/06/25 01:26:23;;;;;;;10.10;1.95;;;;;;;;;;5055424;28;20025;-37
2022/06/25 01:28:48;;;;;;;9.20;2.17;;;;;;;;;;5054907;28;20021;-37
2022/06/25 01:31:14;;;;;;;8.18;2.03;;;;;;;;;;5054923;28;20020;-37
2022/06/25 01:33:39;;;;;;;7.03;2.17;;;;;;;;;;5054661;28;20029;-37
2022/06/25 01:36:04;;;;;;;4.65;1.92;;;;;;;;;;5054005;28;20071;-37
2022/06/25 01:38:30;;;;;;;5.53;1.80;;;;;;;;;;5055028;28;20063;-37
2022/06/25 01:40:55;;;;;;;8.50;2.30;;;;;;;;;;5054896;28;20031;-37
2022/06/25 01:43:21;;;;;;;2.60;1.83;;;;;;;;;;5054778;28;20029;-37
2022/06/25 01:45:46;;;;;;;4.43;2.20;;;;;;;;;;5053749;28;20021;-37
2022/06/25 01:48:12;;;;;;;2.85;1.70;;;;;;;;;;5054322;28;20461;-37
2022/06/25 01:50:38;;;;;;;3.70;1.80;;;;;;;;;;5055056;28;20021;-37
2022/06/25 01:53:04;;;;;;;3.55;2.25;;;;;;;;;;5054464;28;20114;-37
2022/06/25 01:55:29;;;;;;;3.25;1.67;;;;;;;;;;5054449;28;20025;-37
2022/06/25 01:57:54;;;;;;;3.08;1.60;;;;;;;;;;5054428;28;20049;-37
2022/06/25 02:00:22;;;;;;;3.22;1.77;;;;;;;;;;5054444;28;20025;-37
2022/06/25 02:02:47;;;;;;;2.60;1.70;;;;;;;;;;5054181;28;20456;-37
2022/06/25 02:05:14;;;;;;;4.90;1.95;;;;;;;;;;5054398;28;20025;-37
2022/06/25 02:07:39;;;;;;;5.03;2.20;;;;;;;;;;5054199;28;20021;-37
2022/06/25 02:10:05;;;;;;;8.88;1.90;;;;;;;;;;5054112;28;20056;-37
2022/06/25 02:12:30;;;;;;;2.92;1.83;;;;;;;;;;5054181;28;20388;-37
2022/06/25 02:14:56;;;;;;;7.30;2.35;;;;;;;;;;5054128;28;20428;-37
2022/06/25 02:17:21;;;;;;;2.25;1.95;;;;;;;;;;5053737;28;20360;-37
2022/06/25 02:19:46;;;;;;;3.03;1.95;;;;;;;;;;5054234;28;20021;-37
2022/06/25 02:22:14;;;;;;;4.13;2.03;;;;;;;;;;5053884;28;20086;-37
2022/06/25 02:24:43;;;;;;;4.03;1.95;;;;;;;;;;5054027;28;20017;-37
2022/06/25 02:27:09;;;;;;;4.43;2.10;;;;;;;;;;5052700;28;20025;-37
2022/06/25 02:29:34;;;;;;;3.58;1.85;;;;;;;;;;5053836;28;20028;-37
2022/06/25 02:32:00;;;;;;;3.95;1.80;;;;;;;;;;5053638;28;20025;-38
2022/06/25 02:34:25;;;;;;;4.70;1.75;;;;;;;;;;5053551;28;20033;-37
2022/06/25 02:36:51;;;;;;;4.32;1.90;;;;;;;;;;5053849;28;20472;-37
2022/06/25 02:39:16;;;;;;;7.32;2.00;;;;;;;;;;5053652;28;20028;-37
2022/06/25 02:41:42;;;;;;;4.30;2.08;;;;;;;;;;5052432;28;20462;-37
2022/06/25 02:44:07;;;;;;;4.85;2.25;;;;;;;;;;5053488;28;20025;-37
2022/06/25 02:46:32;;;;;;;5.33;2.40;;;;;;;;;;5053447;28;20027;-38
2022/06/25 02:48:57;;;;;;;4.57;2.22;;;;;;;;;;5053318;28;20265;-37
2022/06/25 02:51:23;;;;;;;3.67;2.00;;;;;;;;;;5053395;28;20060;-37
2022/06/25 02:53:48;;;;;;;4.70;2.50;;;;;;;;;;5053397;28;20112;-37
2022/06/25 02:58:58;;;;;;;3.63;2.05;;;;;;;;;;5053482;28;20237;-37
2022/06/25 03:01:24;;;;;;;6.03;1.80;;;;;;;;;;5051717;28;20025;-37
2022/06/25 03:03:50;;;;;;;5.70;2.03;;;;;;;;;;5053219;28;20380;-37
2022/06/25 03:06:15;;;;;;;3.83;2.15;;;;;;;;;;5053258;28;20025;-37
2022/06/25 03:08:40;;;;;;;3.72;2.60;;;;;;;;;;5053078;28;20400;-37
2022/06/25 03:11:06;;;;;;;6.65;2.30;;;;;;;;;;5051620;28;20053;-37
2022/06/25 03:13:34;;;;;;;3.88;2.40;;;;;;;;;;5052929;28;20138;-37
2022/06/25 03:16:00;;;;;;;10.50;2.60;;;;;;;;;;5053001;28;20021;-37
2022/06/25 03:18:25;;;;;;;7.60;2.75;;;;;;;;;;5052840;28;20021;-37
2022/06/25 03:20:51;;;;;;;5.95;2.15;;;;;;;;;;5053297;28;20357;-37
2022/06/25 03:23:16;;;;;;;3.55;2.30;;;;;;;;;;5052895;28;20095;-37
2022/06/25 03:25:42;;;;;;;4.50;2.10;;;;;;;;;;5051689;28;20032;-37
2022/06/25 03:28:07;;;;;;;10.25;3.60;;;;;;;;;;5051580;28;20371;-37
2022/06/25 03:30:32;;;;;;;4.85;2.78;;;;;;;;;;5052675;28;20021;-37
2022/06/25 03:32:58;;;;;;;9.38;4.15;;;;;;;;;;5051242;28;20017;-37
2022/06/25 03:35:23;;;;;;;13.27;4.53;;;;;;;;;;5052722;28;20028;-37
2022/06/25 03:37:48;;;;;;;10.37;4.90;;;;;;;;;;5052737;28;20238;-37
2022/06/25 03:40:14;;;;;;;9.85;4.28;;;;;;;;;;5052761;28;20250;-37
2022/06/25 03:42:39;;;;;;;8.68;3.90;;;;;;;;;;5052662;28;20024;-37
2022/06/25 03:45:05;;;;;;;10.35;4.15;;;;;;;;;;5052540;28;20028;-38
2022/06/25 03:47:30;;;;;;;7.68;4.32;;;;;;;;;;5052520;28;20036;-37
2022/06/25 03:49:55;;;;;;;10.60;4.20;;;;;;;;;;5053078;28;20029;-38
2022/06/25 03:52:21;;;;;;;7.95;3.88;;;;;;;;;;5052647;28;20025;-37
2022/06/25 03:54:46;;;;;;;7.53;3.70;;;;;;;;;;5052639;28;20036;-37
2022/06/25 03:57:11;;;;;;;8.80;4.10;;;;;;;;;;5052582;28;20059;-37
2022/06/25 03:59:37;;;;;;;7.30;3.65;;;;;;;;;;5052129;28;20023;-37
2022/06/25 04:02:02;;;;;;;6.32;3.53;;;;;;;;;;5056394;28;20024;-37
2022/06/25 04:04:27;;;;;;;9.35;4.25;;;;;;;;;;5055454;28;20029;-36
2022/06/25 04:06:53;;;;;;;7.95;4.53;;;;;;;;;;5055335;28;20044;-37
2022/06/25 04:09:18;;;;;;;9.75;5.50;;;;;;;;;;5056843;28;20033;-37
2022/06/25 04:11:43;;;;;;;11.48;6.05;;;;;;;;;;5056394;28;20095;-37
2022/06/25 04:14:09;;;;;;;12.55;6.53;;;;;;;;;;5056396;28;20075;-37
2022/06/25 04:16:34;;;;;;;11.65;5.95;;;;;;;;;;5055963;28;20412;-37
2022/06/25 04:18:59;;;;;;;10.30;6.38;;;;;;;;;;5054985;28;20017;-37
2022/06/25 04:21:25;;;;;;;14.65;6.93;;;;;;;;;;5055118;28;20029;-37
2022/06/25 04:23:50;;;;;;;11.18;6.13;;;;;;;;;;5056108;28;20025;-37
2022/06/25 04:26:16;;;;;;;9.20;5.30;;;;;;;;;;5056220;28;20021;-37
2022/06/25 04:31:25;;;;;;;13.82;5.85;;;;;;;;;;5056228;28;20024;-37
2022/06/25 04:33:51;;;;;;;9.35;5.43;;;;;;;;;;5056295;28;20029;-37
2022/06/25 04:36:16;;;;;;;11.48;6.25;;;;;;;;;;5056146;28;20017;-37
2022/06/25 04:38:42;;;;;;;13.05;5.85;;;;;;;;;;5055910;28;20024;-37
2022/06/25 04:41:07;;;;;;;8.45;5.18;;;;;;;;;;5055876;28;20100;-37
2022/06/25 04:43:32;;;;;;;9.57;5.63;;;;;;;;;;5055929;28;20091;-38
2022/06/25 04:45:58;;;;;;;15.27;5.28;;;;;;;;;;5055624;28;20092;-37
2022/06/25 04:48:23;;;;;;;9.20;5.15;;;;;;;;;;5056158;28;20104;-37
2022/06/25 04:50:48;;;;;;;11.20;4.80;;;;;;;;;;5055832;28;20452;-37
2022/06/25 04:53:14;;;;;;;14.73;4.40;;;;;;;;;;5055536;28;20325;-37
2022/06/25 04:55:39;;;;;;;8.30;3.67;;;;;;;;;;5055785;28;20017;-36
2022/06/25 04:58:05;;;;;;;12.30;4.13;;;;;;;;;;5055631;28;20021;-37
2022/06/25 05:00:30;;;;;;;7.40;3.78;;;;;;;;;;5055356;28;20025;-37
2022/06/25 05:02:55;;;;;;;6.70;3.00;;;;;;;;;;5055716;28;20448;-37
2022/06/25 05:05:21;;;;;;;7.78;3.03;;;;;;;;;;5055579;28;20024;-37
2022/06/25 05:07:46;;;;;;;11.23;2.80;;;;;;;;;;5055336;28;20427;-37
2022/06/25 05:10:11;;;;;;;9.48;3.05;;;;;;;;;;5055457;28;20037;-37
2022/06/25 05:15:21;;;;;;;5.88;2.33;;;;;;;;;;5055484;28;20323;-37
2022/06/25 05:17:47;;;;;;;4.63;3.10;;;;;;;;;;5055232;28;20029;-36
2022/06/25 05:20:12;;;;;;;4.90;2.20;;;;;;;;;;5055337;28;20475;-37
2022/06/25 05:22:37;;;;;;;3.65;2.42;;;;;;;;;;5055247;28;20020;-37
2022/06/25 05:25:03;;;;;;;8.48;2.88;;;;;;;;;;5055181;28;20472;-37
2022/06/25 05:27:28;;;;;;;12.68;3.20;;;;;;;;;;5054931;28;20031;-37
2022/06/25 05:29:54;;;;;;;7.60;2.33;;;;;;;;;;5054683;28;20124;-37
2022/06/25 05:32:19;;;;;;;11.32;2.50;;;;;;;;;;5055127;28;20246;-37
2022/06/25 05:34:44;;;;;;;9.57;2.13;;;;;;;;;;5054954;28;20119;-37
2022/06/25 05:37:10;;;;;;;12.53;2.70;;;;;;;;;;5055249;28;20108;-37
2022/06/25 05:39:36;;;;;;;5.30;2.58;;;;;;;;;;5054660;28;20031;-37
2022/06/25 05:42:03;;;;;;;4.60;2.55;;;;;;;;;;5053513;28;20017;-37
2022/06/25 05:44:28;;;;;;;7.00;2.33;;;;;;;;;;5054511;28;20021;-37
2022/06/25 05:46:54;;;;;;;23.90;3.05;;;;;;;;;;5054853;28;20027;-37
2022/06/25 05:49:19;;;;;;;9.63;2.40;;;;;;;;;;5054740;28;20103;-37
2022/06/25 05:51:44;;;;;;;9.80;3.20;;;;;;;;;;5054637;28;20020;-37
2022/06/25 05:54:10;;;;;;;4.05;2.95;;;;;;;;;;5054464;28;20707;-37
2022/06/25 05:56:35;;;;;;;6.30;2.60;;;;;;;;;;5054647;28;20439;-37
2022/06/25 05:59:00;;;;;;;8.63;2.50;;;;;;;;;;5054159;28;20242;-38
2022/06/25 06:01:26;;;;;;;5.33;2.43;;;;;;;;;;5054345;28;20025;-37
2022/06/25 06:03:51;;;;;;;5.03;3.10;;;;;;;;;;5054727;28;20325;-37
2022/06/25 06:06:16;;;;;;;8.57;2.80;;;;;;;;;;5054301;28;20104;-37
2022/06/25 06:08:42;;;;;;;7.10;2.78;;;;;;;;;;5054183;28;20423;-37
2022/06/25 06:11:07;;;;;;;5.73;2.43;;;;;;;;;;5054271;28;20045;-37
2022/06/25 06:13:32;;;;;;;8.97;2.60;;;;;;;;;;5054614;28;20029;-38
2022/06/25 06:15:57;;;;;;;23.03;4.13;;;;;;;;;;5053828;28;20247;-37
2022/06/25 06:18:24;;;;;;;11.43;2.53;;;;;;;;;;5052833;28;20257;-37
2022/06/25 06:20:49;;;;;;;8.82;2.90;;;;;;;;;;5054042;28;20155;-37
2022/06/25 06:23:14;;;;;;;9.02;2.72;;;;;;;;;;5053372;28;20112;-37
2022/06/25 06:25:40;;;;;;;8.13;2.80;;;;;;;;;;5053999;28;20098;-37
2022/06/25 06:28:05;;;;;;;10.25;3.28;;;;;;;;;;5053895;28;20021;-37
2022/06/25 06:30:31;;;;;;;9.70;4.00;;;;;;;;;;5053625;28;20453;-37
2022/06/25 06:32:56;;;;;;;6.68;2.63;;;;;;;;;;5053801;28;20445;-37
2022/06/25 06:35:21;;;;;;;7.45;3.20;;;;;;;;;;5053805;28;20025;-37
2022/06/25 06:37:47;;;;;;;5.47;2.97;;;;;;;;;;5053671;28;20107;-37
2022/06/25 06:40:12;;;;;;;7.60;3.03;;;;;;;;;;5053549;28;20063;-37
2022/06/25 06:42:38;;;;;;;5.18;2.85;;;;;;;;;;5052328;28;20020;-37
2022/06/25 06:45:03;;;;;;;10.27;2.90;;;;;;;;;;5053435;28;20032;-37
2022/06/25 06:47:28;;;;;;;11.65;2.90;;;;;;;;;;5053630;28;20078;-37
2022/06/25 06:49:54;;;;;;;15.57;2.45;;;;;;;;;;5053572;28;20440;-37
2022/06/25 06:52:19;;;;;;;9.55;2.95;;;;;;;;;;5053303;28;20388;-37
2022/06/25 06:54:44;;;;;;;11.30;3.03;;;;;;;;;;5053413;28;20085;-37
2022/06/25 06:57:10;;;;;;;11.75;3.03;;;;;;;;;;5053399;28;20357;-37
2022/06/25 06:59:35;;;;;;;8.63;2.80;;;;;;;;;;5053486;28;20100;-39
2022/06/25 07:02:01;;;;;;;7.53;2.50;;;;;;;;;;5051936;28;20112;-37
2022/06/25 07:04:26;;;;;;;5.35;2.80;;;;;;;;;;5053236;28;20391;-37
2022/06/25 07:06:51;;;;;;;5.90;2.55;;;;;;;;;;5053315;28;20440;-38
2022/06/25 07:09:17;;;;;;;8.82;3.20;;;;;;;;;;5053137;28;20017;-37
2022/06/25 07:11:42;;;;;;;8.20;3.10;;;;;;;;;;5052948;28;20053;-37
2022/06/25 07:14:07;;;;;;;8.25;2.55;;;;;;;;;;5053001;28;20282;-38
2022/06/25 07:16:34;;;;;;;5.93;2.70;;;;;;;;;;5052746;28;20088;-37
2022/06/25 07:19:00;;;;;;;5.78;3.13;;;;;;;;;;5053181;28;20017;-37
2022/06/25 07:21:25;;;;;;;10.93;2.60;;;;;;;;;;5053043;28;20071;-37
2022/06/25 07:23:51;;;;;;;6.82;2.58;;;;;;;;;;5052976;28;20380;-37
2022/06/25 07:26:16;;;;;;;8.90;2.72;;;;;;;;;;5052813;28;20518;-38
2022/06/25 07:28:42;;;;;;;10.90;3.17;;;;;;;;;;5052844;28;20028;-37
2022/06/25 07:31:07;;;;;;;7.10;2.50;;;;;;;;;;5052928;28;20071;-37
2022/06/25 07:33:32;;;;;;;6.15;3.20;;;;;;;;;;5052599;28;20025;-37
2022/06/25 07:35:58;;;;;;;15.57;2.75;;;;;;;;;;5052437;28;20467;-38
2022/06/25 07:38:24;;;;;;;9.50;3.28;;;;;;;;;;5052941;28;20387;-37
2022/06/25 07:40:49;;;;;;;14.23;2.90;;;;;;;;;;5052492;28;20021;-38
2022/06/25 07:43:15;;;;;;;8.88;2.95;;;;;;;;;;5052739;28;20024;-37
2022/06/25 07:45:40;;;;;;;11.55;2.92;;;;;;;;;;5052650;28;20021;-37
2022/06/25 07:48:06;;;;;;;10.38;3.35;;;;;;;;;;5052484;28;20353;-37
2022/06/25 07:53:15;;;;;;;14.80;4.28;;;;;;;;;;5052414;28;20381;-37
2022/06/25 07:55:40;;;;;;;7.53;3.20;;;;;;;;;;5052619;28;20025;-37
2022/06/25 07:58:06;;;;;;;8.25;2.97;;;;;;;;;;5052554;28;20025;-38
2022/06/25 08:00:31;;;;;;;11.48;3.55;;;;;;;;;;5052326;28;20021;-37
2022/06/25 08:02:56;;;;;;;11.27;2.93;;;;;;;;;;5052426;28;20023;-37
2022/06/25 08:05:21;;;;;;;13.97;3.33;;;;;;;;;;5052629;28;20277;-37
2022/06/25 08:07:48;;;;;;;12.70;3.60;;;;;;;;;;5051306;28;20342;-37
2022/06/25 08:10:14;;;;;;;9.35;3.35;;;;;;;;;;5050964;28;20048;-37
2022/06/25 08:12:39;;;;;;;9.75;3.22;;;;;;;;;;5052328;28;20025;-37
2022/06/25 08:15:06;;;;;;;9.73;3.47;;;;;;;;;;5052132;28;20032;-37
2022/06/25 08:17:34;;;;;;;10.02;3.25;;;;;;;;;;5052443;28;20100;-37
2022/06/25 08:19:59;;;;;;;6.93;3.03;;;;;;;;;;5051356;28;20024;-37
2022/06/25 08:22:24;;;;;;;11.60;3.10;;;;;;;;;;5052349;28;20068;-37
2022/06/25 08:24:50;;;;;;;7.30;3.43;;;;;;;;;;5052266;28;20061;-37
2022/06/25 08:27:15;;;;;;;7.30;3.10;;;;;;;;;;5052222;28;20018;-38
2022/06/25 08:29:41;;;;;;;16.00;3.63;;;;;;;;;;5052064;28;20087;-37
2022/06/25 08:32:07;;;;;;;10.25;3.05;;;;;;;;;;5052456;28;20017;-37
2022/06/25 08:34:32;;;;;;;8.48;2.95;;;;;;;;;;5052335;28;20160;-37
2022/06/25 08:36:58;;;;;;;11.37;3.20;;;;;;;;;;5052234;28;20021;-37
2022/06/25 08:39:23;;;;;;;9.77;3.45;;;;;;;;;;5052352;28;20028;-38
2022/06/25 08:41:48;;;;;;;13.27;3.30;;;;;;;;;;5052199;28;20025;-37
2022/06/25 08:44:14;;;;;;;11.35;2.97;;;;;;;;;;5052208;28;20380;-37
2022/06/25 08:46:39;;;;;;;11.02;2.92;;;;;;;;;;5054788;28;20029;-37
2022/06/25 08:49:05;;;;;;;9.52;3.40;;;;;;;;;;5055916;28;20059;-37
2022/06/25 08:51:31;;;;;;;12.90;3.30;;;;;;;;;;5055883;28;20369;-37
2022/06/25 08:53:57;;;;;;;7.22;2.88;;;;;;;;;;5055711;28;20579;-37
2022/06/25 08:56:23;;;;;;;9.10;3.50;;;;;;;;;;5055636;28;20048;-37
2022/06/25 08:58:48;;;;;;;15.45;3.50;;;;;;;;;;5055432;28;20032;-39
2022/06/25 09:01:14;;;;;;;15.07;3.67;;;;;;;;;;5055524;28;20025;-37
2022/06/25 09:03:39;;;;;;;11.02;4.00;;;;;;;;;;5055607;28;20231;-37
2022/06/25 09:06:14;;;;;;;8.00;3.20;;;;;;;;;;5055639;28;20029;-37
2022/06/25 09:08:41;;;;;;;9.85;3.00;;;;;;;;;;5055526;28;20021;-37
2022/06/25 09:11:06;;;;;;;10.45;3.28;;;;;;;;;;5055438;28;20047;-38
2022/06/25 09:13:31;;;;;;;6.30;2.83;;;;;;;;;;5055039;28;20020;-37
2022/06/25 09:15:56;;;;;;;6.40;3.07;;;;;;;;;;5055545;28;20021;-37
2022/06/25 09:18:22;;;;;;;9.97;3.10;;;;;;;;;;5055536;28;20242;-37
2022/06/25 09:20:57;;;;;;;9.73;2.75;;;;;;;;;;5055403;28;20294;-37
2022/06/25 09:23:23;;;;;;;10.48;3.25;;;;;;;;;;5055162;28;20016;-37
2022/06/25 09:25:59;;;;;;;10.07;3.15;;;;;;;;;;5055104;28;20445;-37
2022/06/25 09:28:32;;;;;;;11.13;2.97;;;;;;;;;;5054976;28;20520;-37
2022/06/25 09:30:57;;;;;;;8.13;3.22;;;;;;;;;;5055236;28;20033;-37
2022/06/25 09:33:22;;;;;;;3.30;2.28;;;;;;;;;;5054900;28;20029;-37
2022/06/25 09:35:50;;;;;;;5.30;2.40;;;;;;;;;;5054888;28;20028;-38
2022/06/25 09:38:16;;;;;;;12.48;3.10;;;;;;;;;;5054828;28;20598;-38
2022/06/25 09:40:52;;;;;;;8.43;2.83;;;;;;;;;;5054603;28;20025;-38
2022/06/25 09:43:20;;;;;;;10.45;2.97;;;;;;;;;;5055060;28;20604;-37
2022/06/25 09:45:47;;;;;;;10.02;3.03;;;;;;;;;;5054844;28;20490;-37
2022/06/25 09:48:20;;;;;;;9.38;2.88;;;;;;;;;;5054766;28;20025;-38
2022/06/25 09:51:05;;;;;;;11.18;3.22;;;;;;;;;;5054619;28;20102;-37
2022/06/25 09:53:31;;;;;;;13.13;2.97;;;;;;;;;;5054109;28;20048;-38
2022/06/25 09:55:56;;;;;;;11.98;3.05;;;;;;;;;;5054652;28;20028;-37
2022/06/25 09:58:22;;;;;;;10.45;3.10;;;;;;;;;;5053621;28;20024;-37
2022/06/25 10:00:47;;;;;;;5.97;2.92;;;;;;;;;;5054243;28;20362;-37
2022/06/25 10:03:13;;;;;;;9.20;3.20;;;;;;;;;;5054729;28;20025;-38
2022/06/25 10:05:40;;;;;;;10.73;2.88;;;;;;;;;;5054414;28;20084;-38
2022/06/25 10:08:07;;;;;;;13.68;3.42;;;;;;;;;;5054567;28;20136;-38
2022/06/25 10:10:53;;;;;;;7.75;3.00;;;;;;;;;;5054173;28;20053;-38
2022/06/25 10:13:19;;;;;;;7.40;2.60;;;;;;;;;;5053653;28;20029;-38
2022/06/25 10:15:45;;;;;;;11.23;2.90;;;;;;;;;;5054230;28;20032;-38
2022/06/25 10:18:10;;;;;;;7.82;3.00;;;;;;;;;;5053810;28;20465;-38
2022/06/25 10:20:37;;;;;;;7.18;2.90;;;;;;;;;;5053944;28;20020;-38
2022/06/25 10:23:03;;;;;;;7.38;2.67;;;;;;;;;;5054131;28;20024;-37
2022/06/25 10:25:29;;;;;;;8.63;2.88;;;;;;;;;;5054124;28;20376;-37
2022/06/25 10:28:03;;;;;;;10.55;3.40;;;;;;;;;;5054043;28;20063;-39
2022/06/25 10:30:35;;;;;;;12.88;2.78;;;;;;;;;;5054076;28;20040;-38
2022/06/25 10:33:00;;;;;;;6.97;2.75;;;;;;;;;;5053610;28;20020;-38
2022/06/25 10:35:27;;;;;;;13.23;2.72;;;;;;;;;;5052519;28;20090;-38
2022/06/25 10:38:04;;;;;;;8.95;2.97;;;;;;;;;;5053599;28;20040;-38
2022/06/25 10:40:30;;;;;;;12.68;2.60;;;;;;;;;;5053797;28;20036;-38
2022/06/25 10:42:59;;;;;;;11.93;2.75;;;;;;;;;;5053525;28;20104;-38
2022/06/25 10:45:24;;;;;;;12.20;2.92;;;;;;;;;;5053443;28;20036;-39
2022/06/25 10:47:53;;;;;;;9.80;2.47;;;;;;;;;;5053440;28;20037;-38
2022/06/25 10:50:21;;;;;;;10.55;2.88;;;;;;;;;;5053475;28;20246;-38
2022/06/25 10:53:05;;;;;;;10.80;2.72;;;;;;;;;;5053595;28;20029;-38
2022/06/25 10:55:33;;;;;;;10.10;2.63;;;;;;;;;;5053429;28;20487;-38
2022/06/25 10:58:17;;;;;;;7.10;2.78;;;;;;;;;;5053268;28;20028;-38
2022/06/25 11:00:46;;;;;;;14.25;2.95;;;;;;;;;;5053486;28;20035;-38
2022/06/25 11:03:11;;;;;;;8.02;3.10;;;;;;;;;;5053391;28;20021;-37
2022/06/25 11:05:40;;;;;;;15.68;3.63;;;;;;;;;;5053166;28;20100;-37
2022/06/25 11:08:06;;;;;;;13.73;4.80;;;;;;;;;;5053035;28;20020;-37
2022/06/25 11:10:35;;;;;;;8.85;3.05;;;;;;;;;;5052612;28;20049;-37
2022/06/25 11:13:01;;;;;;;7.82;3.40;;;;;;;;;;5053237;28;20021;-36
2022/06/25 11:15:36;;;;;;;7.03;2.90;;;;;;;;;;5053219;28;20116;-37
2022/06/25 11:18:05;;;;;;;9.38;3.47;;;;;;;;;;5053279;28;20021;-37
2022/06/25 11:20:31;;;;;;;10.23;2.80;;;;;;;;;;5053024;28;20029;-37
2022/06/25 11:22:56;;;;;;;9.02;3.47;;;;;;;;;;5053167;28;20075;-37
2022/06/25 11:30:50;;;;;;;14.25;3.03;;;;;;;;;;5052957;28;20451;-37
2022/06/25 11:33:15;;;;;;;7.82;2.92;;;;;;;;;;5052870;28;20057;-38
2022/06/25 11:35:41;;;;;;;11.35;2.65;;;;;;;;;;5052627;28;20016;-38
2022/06/25 11:38:13;;;;;;;9.25;2.70;;;;;;;;;;5052980;28;20021;-38
2022/06/25 11:40:39;;;;;;;10.63;2.83;;;;;;;;;;5052600;28;20021;-38
2022/06/25 11:43:07;;;;;;;5.97;2.28;;;;;;;;;;5052595;28;20121;-38
2022/06/25 11:45:32;;;;;;;;;;;;;;;;;;5053152;28;20384;-38
2022/06/25 11:47:58;;;;;;;7.00;2.80;;;;;;;;;;5052587;28;19905;-38
2022/06/25 11:50:23;;;;;;;7.20;2.83;;;;;;;;;;5052438;28;20028;-38
2022/06/25 11:52:49;;;;;;;7.32;2.90;;;;;;;;;;5052843;28;20021;-38
2022/06/25 11:55:14;;;;;;;8.55;2.58;;;;;;;;;;5052666;28;20444;-37
2022/06/25 11:57:42;;;;;;;10.73;2.70;;;;;;;;;;5052702;28;20119;-37
2022/06/25 12:00:09;;;;;;;5.82;2.25;;;;;;;;;;5052556;28;20100;-37
2022/06/25 12:02:35;;;;;;;12.02;2.88;;;;;;;;;;5052435;28;20031;-37
2022/06/25 12:05:02;;;;;;;12.43;2.47;;;;;;;;;;5052218;28;20092;-38
2022/06/25 12:07:29;;;;;;;7.82;2.58;;;;;;;;;;5052766;28;20025;-37
2022/06/25 12:09:56;;;;;;;7.97;2.35;;;;;;;;;;5052158;28;20107;-38
2022/06/25 12:12:22;;;;;;;14.10;3.45;;;;;;;;;;5052495;28;20029;-37
2022/06/25 12:14:48;;;;;;;11.70;3.00;;;;;;;;;;5052284;28;20072;-37
2022/06/25 12:17:14;;;;;;;8.70;2.60;;;;;;;;;;5052151;28;20361;-37
2022/06/25 12:19:49;;;;;;;12.75;2.50;;;;;;;;;;5052092;28;20031;-37
2022/06/25 12:22:35;;;;;;;8.68;2.45;;;;;;;;;;5056175;28;20375;-37
2022/06/25 12:25:00;;;;;;;7.28;2.20;;;;;;;;;;5056254;28;20032;-37
2022/06/25 12:27:26;;;;;;;12.43;2.80;;;;;;;;;;5056254;28;20025;-37
2022/06/25 12:29:53;;;;;;;10.70;2.65;;;;;;;;;;5056167;28;20021;-38
2022/06/25 12:32:19;;;;;;;15.35;2.70;;;;;;;;;;5054662;28;20618;-37
2022/06/25 12:34:45;;;;;;;20.27;3.25;;;;;;;;;;5056204;28;20124;-37
2022/06/25 12:37:10;;;;;;;9.52;3.00;;;;;;;;;;5055996;28;20037;-37
2022/06/25 12:39:36;;;;;;;10.55;2.45;;;;;;;;;;5054789;28;20517;-37
2022/06/25 12:42:03;;;;;;;11.27;2.42;;;;;;;;;;5056030;28;20078;-37
2022/06/25 12:44:32;;;;;;;9.57;2.83;;;;;;;;;;5055925;28;20009;-37
2022/06/25 12:46:59;;;;;;;10.65;2.30;;;;;;;;;;5054496;28;20364;-37
2022/06/25 12:49:24;;;;;;;17.25;4.32;;;;;;;;;;5055903;28;20029;-37
2022/06/25 12:51:49;;;;;;;29.92;4.82;;;;;;;;;;5056045;28;20017;-37
2022/06/25 12:54:15;;;;;;;28.45;5.13;;;;;;;;;;5055764;28;20040;-37
2022/06/25 12:56:40;;;;;;;26.95;3.78;;;;;;;;;;5055700;28;20053;-37
2022/06/25 12:59:06;;;;;;;15.40;3.05;;;;;;;;;;5055456;28;20025;-38
2022/06/25 13:01:33;;;;;;;10.90;2.67;;;;;;;;;;5055293;28;20087;-37
2022/06/25 13:04:00;;;;;;;31.95;6.18;;;;;;;;;;5055706;28;20025;-37
2022/06/25 13:06:25;;;;;;;20.92;2.95;;;;;;;;;;5055512;28;20120;-37
2022/06/25 13:08:51;;;;;;;16.20;3.22;;;;;;;;;;5055543;28;20057;-37
2022/06/25 13:11:17;;;;;;;12.67;2.00;;;;;;;;;;5055474;28;20524;-37
2022/06/25 13:13:42;;;;;;;17.25;4.82;;;;;;;;;;5055261;28;20292;-37
2022/06/25 13:16:08;;;;;;;12.07;2.92;;;;;;;;;;5054993;28;20029;-37
2022/06/25 13:18:33;;;;;;;13.88;2.55;;;;;;;;;;5055344;28;20045;-37
2022/06/25 13:20:59;;;;;;;14.45;2.75;;;;;;;;;;5055395;28;20029;-37
2022/06/25 13:23:25;;;;;;;13.90;2.50;;;;;;;;;;5055015;28;20082;-37
2022/06/25 13:25:50;;;;;;;11.38;2.60;;;;;;;;;;5055247;28;20025;-37
2022/06/25 13:28:15;;;;;;;5.80;2.17;;;;;;;;;;5053670;28;20078;-37
2022/06/25 13:30:41;;;;;;;14.40;2.88;;;;;;;;;;5054833;28;20095;-37
2022/06/25 13:33:06;;;;;;;8.65;2.00;;;;;;;;;;5053875;28;20060;-37
2022/06/25 13:35:32;;;;;;;15.52;2.05;;;;;;;;;;5054960;28;20091;-37
2022/06/25 13:37:57;;;;;;;4.72;2.13;;;;;;;;;;5054949;28;20025;-37
2022/06/25 13:40:22;;;;;;;4.38;1.73;;;;;;;;;;5054912;28;20017;-37
2022/06/25 13:42:48;;;;;;;6.55;2.00;;;;;;;;;;5054744;28;20026;-37
2022/06/25 13:45:13;;;;;;;9.32;1.88;;;;;;;;;;5054532;28;20021;-38
2022/06/25 13:47:39;;;;;;;19.93;5.27;;;;;;;;;;5054876;28;20460;-37
2022/06/25 13:50:04;;;;;;;11.70;2.15;;;;;;;;;;5054857;28;20252;-37
2022/06/25 13:52:30;;;;;;;12.07;2.20;;;;;;;;;;5054669;28;20021;-37
2022/06/25 13:54:55;;;;;;;8.10;2.03;;;;;;;;;;5054472;28;20033;-37
2022/06/25 13:57:20;;;;;;;8.93;2.10;;;;;;;;;;5054540;28;20104;-37
2022/06/25 13:59:46;;;;;;;10.75;3.45;;;;;;;;;;5054453;28;20234;-38
2022/06/25 14:02:11;;;;;;;10.07;2.95;;;;;;;;;;5053146;28;20086;-37
2022/06/25 14:04:36;;;;;;;10.40;2.40;;;;;;;;;;5054603;28;20028;-38
2022/06/25 14:07:02;;;;;;;2.65;1.60;;;;;;;;;;5054302;28;20258;-37
2022/06/25 14:09:28;;;;;;;12.38;2.95;;;;;;;;;;5054381;28;20060;-37
2022/06/25 14:11:53;;;;;;;11.38;4.78;;;;;;;;;;5054129;28;20171;-37
2022/06/25 14:14:18;;;;;;;6.50;2.30;;;;;;;;;;5054167;28;20488;-37
2022/06/25 14:16:43;;;;;;;7.55;2.25;;;;;;;;;;5053894;28;20238;-37
2022/06/25 14:19:09;;;;;;;5.65;1.80;;;;;;;;;;5054330;28;20027;-37
2022/06/25 14:21:34;;;;;;;6.72;1.90;;;;;;;;;;5053973;28;20029;-37
2022/06/25 14:24:00;;;;;;;6.82;2.20;;;;;;;;;;5054427;28;20063;-37
2022/06/25 14:26:26;;;;;;;7.60;2.10;;;;;;;;;;5054036;28;20080;-37
2022/06/25 14:28:51;;;;;;;9.00;2.22;;;;;;;;;;5053957;28;20021;-37
2022/06/25 14:31:17;;;;;;;8.70;2.37;;;;;;;;;;5053766;28;20453;-37
2022/06/25 14:33:42;;;;;;;12.25;2.33;;;;;;;;;;5053721;28;20029;-37
2022/06/25 14:44:19;;;;;;;4.68;2.00;;;;;;;;;;5053237;28;20400;-37
2022/06/25 14:46:45;;;;;;;8.45;2.30;;;;;;;;;;5053805;28;20025;-37
2022/06/25 14:49:11;;;;;;;7.50;2.10;;;;;;;;;;5053683;28;20456;-37
2022/06/25 14:51:37;;;;;;;6.60;1.90;;;;;;;;;;5053454;28;20468;-37
2022/06/25 14:54:02;;;;;;;2.97;1.40;;;;;;;;;;5053668;28;20128;-37
2022/06/25 14:56:27;;;;;;;6.88;1.42;;;;;;;;;;5053211;28;20025;-43